sensor_id;sensor_type;location;lat;lon;timestamp;P1;durP1;ratioP1;P2;durP2;ratioP2
32292;SDS011;43233;48.608;8.838;2023-12-20T00:01:35;1.90;;;1.80;;
32292;SDS011;43233;48.608;8.838;2023-12-20T00:04:01;2.00;;;1.90;;
32292;SDS011;43233;48.608;8.838;2023-12-20T00:06:27;2.00;;;1.90;;
32292;SDS011;43233;48.608;8.838;2023-12-20T00:08:53;2.17;;;2.07;;
32292;SDS011;43233;48.608;8.838;2023-12-20T00:11:19;2.20;;;2.10;;
32292;SDS011;43233;48.608;8.838;2023-12-20T00:13:44;1.57;;;1.50;;
32292;SDS011;43233;48.608;8.838;2023-12-20T00:16:10;1.80;;;1.70;;
32292;SDS011;43233;48.608;8.838;2023-12-20T00:18:35;1.87;;;1.77;;
32292;SDS011;43233;48.608;8.838;2023-12-20T00:21:01;1.80;;;1.70;;
32292;SDS011;43233;48.608;8.838;2023-12-20T00:23:26;2.47;;;1.50;;
32292;SDS011;43233;48.608;8.838;2023-12-20T00:25:52;1.50;;;1.40;;
32292;SDS011;43233;48.608;8.838;2023-12-20T00:28:18;1.80;;;1.70;;
32292;SDS011;43233;48.608;8.838;2023-12-20T00:30:43;6.40;;;1.90;;
32292;SDS011;43233;48.608;8.838;2023-12-20T00:33:09;1.87;;;1.77;;
32292;SDS011;43233;48.608;8.838;2023-12-20T00:35:34;1.50;;;1.40;;
32292;SDS011;43233;48.608;8.838;2023-12-20T00:38:00;2.33;;;2.23;;
32292;SDS011;43233;48.608;8.838;2023-12-20T00:40:26;2.00;;;1.90;;
32292;SDS011;43233;48.608;8.838;2023-12-20T00:42:51;1.90;;;1.80;;
32292;SDS011;43233;48.608;8.838;2023-12-20T00:45:17;1.60;;;1.50;;
32292;SDS011;43233;48.608;8.838;2023-12-20T00:47:43;1.70;;;1.60;;
32292;SDS011;43233;48.608;8.838;2023-12-20T00:50:08;1.70;;;1.60;;
32292;SDS011;43233;48.608;8.838;2023-12-20T00:52:34;1.80;;;1.70;;
32292;SDS011;43233;48.608;8.838;2023-12-20T00:55:00;1.50;;;1.40;;
32292;SDS011;43233;48.608;8.838;2023-12-20T00:57:26;1.63;;;1.53;;
32292;SDS011;43233;48.608;8.838;2023-12-20T00:59:51;1.80;;;1.70;;
32292;SDS011;43233;48.608;8.838;2023-12-20T01:02:17;1.40;;;1.40;;
32292;SDS011;43233;48.608;8.838;2023-12-20T01:04:43;1.50;;;1.50;;
32292;SDS011;43233;48.608;8.838;2023-12-20T01:07:08;1.80;;;1.70;;
32292;SDS011;43233;48.608;8.838;2023-12-20T01:09:34;1.93;;;1.83;;
32292;SDS011;43233;48.608;8.838;2023-12-20T01:11:59;1.83;;;1.73;;
32292;SDS011;43233;48.608;8.838;2023-12-20T01:14:25;1.23;;;1.23;;
32292;SDS011;43233;48.608;8.838;2023-12-20T01:16:51;1.47;;;1.37;;
32292;SDS011;43233;48.608;8.838;2023-12-20T01:19:16;1.70;;;1.60;;
32292;SDS011;43233;48.608;8.838;2023-12-20T01:21:42;1.90;;;1.80;;
32292;SDS011;43233;48.608;8.838;2023-12-20T01:24:08;3.00;;;2.20;;
32292;SDS011;43233;48.608;8.838;2023-12-20T01:26:34;2.13;;;1.40;;
32292;SDS011;43233;48.608;8.838;2023-12-20T01:28:59;1.40;;;1.40;;
32292;SDS011;43233;48.608;8.838;2023-12-20T01:31:26;1.20;;;1.20;;
32292;SDS011;43233;48.608;8.838;2023-12-20T01:33:52;1.33;;;1.33;;
32292;SDS011;43233;48.608;8.838;2023-12-20T01:36:18;1.57;;;1.30;;
32292;SDS011;43233;48.608;8.838;2023-12-20T01:38:43;1.27;;;1.27;;
32292;SDS011;43233;48.608;8.838;2023-12-20T01:41:09;1.20;;;1.20;;
32292;SDS011;43233;48.608;8.838;2023-12-20T01:43:34;1.20;;;1.20;;
32292;SDS011;43233;48.608;8.838;2023-12-20T01:46:00;1.00;;;1.00;;
32292;SDS011;43233;48.608;8.838;2023-12-20T01:48:26;1.20;;;1.20;;
32292;SDS011;43233;48.608;8.838;2023-12-20T01:50:53;1.20;;;1.20;;
32292;SDS011;43233;48.608;8.838;2023-12-20T01:53:20;1.20;;;1.20;;
32292;SDS011;43233;48.608;8.838;2023-12-20T01:55:48;1.37;;;1.20;;
32292;SDS011;43233;48.608;8.838;2023-12-20T01:58:17;1.20;;;1.10;;
32292;SDS011;43233;48.608;8.838;2023-12-20T02:00:43;1.10;;;1.10;;
32292;SDS011;43233;48.608;8.838;2023-12-20T02:03:09;1.77;;;1.10;;
32292;SDS011;43233;48.608;8.838;2023-12-20T02:05:36;1.40;;;1.30;;
32292;SDS011;43233;48.608;8.838;2023-12-20T02:08:04;1.10;;;1.10;;
32292;SDS011;43233;48.608;8.838;2023-12-20T02:10:30;1.10;;;1.10;;
32292;SDS011;43233;48.608;8.838;2023-12-20T02:12:56;1.10;;;1.10;;
32292;SDS011;43233;48.608;8.838;2023-12-20T02:15:22;1.03;;;1.03;;
32292;SDS011;43233;48.608;8.838;2023-12-20T02:17:48;1.00;;;1.00;;
32292;SDS011;43233;48.608;8.838;2023-12-20T02:20:14;1.07;;;1.07;;
32292;SDS011;43233;48.608;8.838;2023-12-20T02:22:40;0.90;;;0.90;;
32292;SDS011;43233;48.608;8.838;2023-12-20T02:25:05;0.97;;;0.97;;
32292;SDS011;43233;48.608;8.838;2023-12-20T02:27:31;0.93;;;0.93;;
32292;SDS011;43233;48.608;8.838;2023-12-20T02:29:57;0.90;;;0.90;;
32292;SDS011;43233;48.608;8.838;2023-12-20T02:32:22;1.00;;;1.00;;
32292;SDS011;43233;48.608;8.838;2023-12-20T02:34:52;1.00;;;1.00;;
32292;SDS011;43233;48.608;8.838;2023-12-20T02:37:18;3.17;;;1.00;;
32292;SDS011;43233;48.608;8.838;2023-12-20T02:39:44;1.00;;;1.00;;
32292;SDS011;43233;48.608;8.838;2023-12-20T02:42:09;0.93;;;0.93;;
32292;SDS011;43233;48.608;8.838;2023-12-20T02:44:35;1.00;;;1.00;;
32292;SDS011;43233;48.608;8.838;2023-12-20T02:47:01;1.00;;;1.00;;
32292;SDS011;43233;48.608;8.838;2023-12-20T02:49:27;0.97;;;0.97;;
32292;SDS011;43233;48.608;8.838;2023-12-20T02:51:53;0.90;;;0.90;;
32292;SDS011;43233;48.608;8.838;2023-12-20T02:54:18;1.10;;;1.10;;
32292;SDS011;43233;48.608;8.838;2023-12-20T02:56:44;1.00;;;1.00;;
32292;SDS011;43233;48.608;8.838;2023-12-20T02:59:09;1.00;;;1.00;;
32292;SDS011;43233;48.608;8.838;2023-12-20T03:01:35;1.10;;;1.10;;
32292;SDS011;43233;48.608;8.838;2023-12-20T03:04:07;0.90;;;0.90;;
32292;SDS011;43233;48.608;8.838;2023-12-20T03:06:33;0.90;;;0.90;;
32292;SDS011;43233;48.608;8.838;2023-12-20T03:08:58;0.90;;;0.90;;
32292;SDS011;43233;48.608;8.838;2023-12-20T03:11:26;0.90;;;0.90;;
32292;SDS011;43233;48.608;8.838;2023-12-20T03:13:52;1.00;;;1.00;;
32292;SDS011;43233;48.608;8.838;2023-12-20T03:16:18;0.90;;;0.90;;
32292;SDS011;43233;48.608;8.838;2023-12-20T03:18:43;1.00;;;1.00;;
32292;SDS011;43233;48.608;8.838;2023-12-20T03:21:09;0.93;;;0.93;;
32292;SDS011;43233;48.608;8.838;2023-12-20T03:23:35;1.10;;;1.00;;
32292;SDS011;43233;48.608;8.838;2023-12-20T03:26:00;0.90;;;0.90;;
32292;SDS011;43233;48.608;8.838;2023-12-20T03:28:26;1.10;;;1.10;;
32292;SDS011;43233;48.608;8.838;2023-12-20T03:30:52;0.90;;;0.90;;
32292;SDS011;43233;48.608;8.838;2023-12-20T03:33:18;2.30;;;0.90;;
32292;SDS011;43233;48.608;8.838;2023-12-20T03:35:44;1.00;;;1.00;;
32292;SDS011;43233;48.608;8.838;2023-12-20T03:38:09;0.90;;;0.90;;
32292;SDS011;43233;48.608;8.838;2023-12-20T03:40:35;0.90;;;0.90;;
32292;SDS011;43233;48.608;8.838;2023-12-20T03:43:00;1.00;;;1.00;;
32292;SDS011;43233;48.608;8.838;2023-12-20T03:45:26;1.00;;;1.00;;
32292;SDS011;43233;48.608;8.838;2023-12-20T03:47:52;1.00;;;1.00;;
32292;SDS011;43233;48.608;8.838;2023-12-20T03:50:24;1.00;;;1.00;;
32292;SDS011;43233;48.608;8.838;2023-12-20T03:52:52;1.53;;;1.00;;
32292;SDS011;43233;48.608;8.838;2023-12-20T03:55:18;0.90;;;0.90;;
32292;SDS011;43233;48.608;8.838;2023-12-20T03:57:43;1.00;;;1.00;;
32292;SDS011;43233;48.608;8.838;2023-12-20T04:00:09;1.00;;;1.00;;
32292;SDS011;43233;48.608;8.838;2023-12-20T04:02:39;1.00;;;1.00;;
32292;SDS011;43233;48.608;8.838;2023-12-20T04:05:15;1.23;;;1.13;;
32292;SDS011;43233;48.608;8.838;2023-12-20T04:07:41;1.00;;;1.00;;
32292;SDS011;43233;48.608;8.838;2023-12-20T04:10:07;1.10;;;1.10;;
32292;SDS011;43233;48.608;8.838;2023-12-20T04:12:33;1.07;;;1.07;;
32292;SDS011;43233;48.608;8.838;2023-12-20T04:14:59;1.67;;;1.00;;
32292;SDS011;43233;48.608;8.838;2023-12-20T04:17:24;1.10;;;1.10;;
32292;SDS011;43233;48.608;8.838;2023-12-20T04:19:50;1.00;;;1.00;;
32292;SDS011;43233;48.608;8.838;2023-12-20T04:22:17;1.00;;;1.00;;
32292;SDS011;43233;48.608;8.838;2023-12-20T04:24:43;1.00;;;1.00;;
32292;SDS011;43233;48.608;8.838;2023-12-20T04:27:09;0.90;;;0.90;;
32292;SDS011;43233;48.608;8.838;2023-12-20T04:29:35;1.00;;;1.00;;
32292;SDS011;43233;48.608;8.838;2023-12-20T04:32:01;1.13;;;1.13;;
32292;SDS011;43233;48.608;8.838;2023-12-20T04:34:26;1.20;;;1.10;;
32292;SDS011;43233;48.608;8.838;2023-12-20T04:36:52;1.00;;;1.00;;
32292;SDS011;43233;48.608;8.838;2023-12-20T04:39:18;1.00;;;1.00;;
32292;SDS011;43233;48.608;8.838;2023-12-20T04:41:44;1.00;;;0.90;;
32292;SDS011;43233;48.608;8.838;2023-12-20T04:44:09;1.03;;;1.00;;
32292;SDS011;43233;48.608;8.838;2023-12-20T04:46:35;2.33;;;2.13;;
32292;SDS011;43233;48.608;8.838;2023-12-20T04:49:01;2.53;;;1.50;;
32292;SDS011;43233;48.608;8.838;2023-12-20T04:51:26;1.20;;;1.20;;
32292;SDS011;43233;48.608;8.838;2023-12-20T04:53:52;1.70;;;1.70;;
32292;SDS011;43233;48.608;8.838;2023-12-20T04:56:18;2.27;;;2.17;;
32292;SDS011;43233;48.608;8.838;2023-12-20T04:58:43;1.90;;;1.90;;
32292;SDS011;43233;48.608;8.838;2023-12-20T05:01:09;1.20;;;1.20;;
32292;SDS011;43233;48.608;8.838;2023-12-20T05:03:35;1.17;;;1.07;;
32292;SDS011;43233;48.608;8.838;2023-12-20T05:06:01;1.20;;;1.20;;
32292;SDS011;43233;48.608;8.838;2023-12-20T05:08:27;1.30;;;1.30;;
32292;SDS011;43233;48.608;8.838;2023-12-20T05:10:54;1.00;;;1.00;;
32292;SDS011;43233;48.608;8.838;2023-12-20T05:13:20;1.37;;;1.00;;
32292;SDS011;43233;48.608;8.838;2023-12-20T05:15:46;1.00;;;1.00;;
32292;SDS011;43233;48.608;8.838;2023-12-20T05:18:12;1.00;;;1.00;;
32292;SDS011;43233;48.608;8.838;2023-12-20T05:20:38;1.00;;;1.00;;
32292;SDS011;43233;48.608;8.838;2023-12-20T05:23:03;1.00;;;1.00;;
32292;SDS011;43233;48.608;8.838;2023-12-20T05:25:29;1.10;;;1.10;;
32292;SDS011;43233;48.608;8.838;2023-12-20T05:27:55;1.10;;;1.10;;
32292;SDS011;43233;48.608;8.838;2023-12-20T05:30:21;1.00;;;1.00;;
32292;SDS011;43233;48.608;8.838;2023-12-20T05:32:46;1.20;;;1.10;;
32292;SDS011;43233;48.608;8.838;2023-12-20T05:35:12;0.97;;;0.97;;
32292;SDS011;43233;48.608;8.838;2023-12-20T05:37:38;1.70;;;1.03;;
32292;SDS011;43233;48.608;8.838;2023-12-20T05:40:04;1.10;;;1.10;;
32292;SDS011;43233;48.608;8.838;2023-12-20T05:42:30;1.23;;;1.17;;
32292;SDS011;43233;48.608;8.838;2023-12-20T05:44:55;1.20;;;1.20;;
32292;SDS011;43233;48.608;8.838;2023-12-20T05:47:21;1.00;;;1.00;;
32292;SDS011;43233;48.608;8.838;2023-12-20T05:49:47;1.10;;;1.10;;
32292;SDS011;43233;48.608;8.838;2023-12-20T05:52:12;1.00;;;1.00;;
32292;SDS011;43233;48.608;8.838;2023-12-20T05:54:38;1.17;;;1.07;;
32292;SDS011;43233;48.608;8.838;2023-12-20T05:57:03;2.83;;;1.20;;
32292;SDS011;43233;48.608;8.838;2023-12-20T05:59:29;1.10;;;1.10;;
32292;SDS011;43233;48.608;8.838;2023-12-20T06:01:55;1.20;;;1.20;;
32292;SDS011;43233;48.608;8.838;2023-12-20T06:04:20;1.40;;;1.30;;
32292;SDS011;43233;48.608;8.838;2023-12-20T06:06:46;1.10;;;1.10;;
32292;SDS011;43233;48.608;8.838;2023-12-20T06:09:12;1.07;;;1.07;;
32292;SDS011;43233;48.608;8.838;2023-12-20T06:11:37;1.90;;;1.80;;
32292;SDS011;43233;48.608;8.838;2023-12-20T06:14:03;1.10;;;1.10;;
32292;SDS011;43233;48.608;8.838;2023-12-20T06:16:28;1.30;;;1.30;;
32292;SDS011;43233;48.608;8.838;2023-12-20T06:18:54;1.03;;;1.03;;
32292;SDS011;43233;48.608;8.838;2023-12-20T06:21:20;1.17;;;1.17;;
32292;SDS011;43233;48.608;8.838;2023-12-20T06:23:46;2.63;;;2.50;;
32292;SDS011;43233;48.608;8.838;2023-12-20T06:26:11;1.53;;;1.53;;
32292;SDS011;43233;48.608;8.838;2023-12-20T06:28:37;1.83;;;1.73;;
32292;SDS011;43233;48.608;8.838;2023-12-20T06:31:02;2.03;;;1.93;;
32292;SDS011;43233;48.608;8.838;2023-12-20T06:33:28;1.60;;;1.60;;
32292;SDS011;43233;48.608;8.838;2023-12-20T06:35:56;2.27;;;2.07;;
32292;SDS011;43233;48.608;8.838;2023-12-20T06:38:22;1.70;;;1.60;;
32292;SDS011;43233;48.608;8.838;2023-12-20T06:40:48;1.77;;;1.67;;
32292;SDS011;43233;48.608;8.838;2023-12-20T06:43:13;1.37;;;1.37;;
32292;SDS011;43233;48.608;8.838;2023-12-20T06:45:39;1.77;;;1.67;;
32292;SDS011;43233;48.608;8.838;2023-12-20T06:48:05;1.60;;;1.50;;
32292;SDS011;43233;48.608;8.838;2023-12-20T06:50:31;1.63;;;1.63;;
32292;SDS011;43233;48.608;8.838;2023-12-20T06:52:57;1.57;;;1.47;;
32292;SDS011;43233;48.608;8.838;2023-12-20T06:55:22;1.80;;;1.70;;
32292;SDS011;43233;48.608;8.838;2023-12-20T06:57:48;2.00;;;1.90;;
32292;SDS011;43233;48.608;8.838;2023-12-20T07:00:14;1.63;;;1.53;;
32292;SDS011;43233;48.608;8.838;2023-12-20T07:02:40;1.93;;;1.83;;
32292;SDS011;43233;48.608;8.838;2023-12-20T07:05:05;1.40;;;1.40;;
32292;SDS011;43233;48.608;8.838;2023-12-20T07:07:31;2.60;;;1.50;;
32292;SDS011;43233;48.608;8.838;2023-12-20T07:09:57;2.43;;;2.33;;
32292;SDS011;43233;48.608;8.838;2023-12-20T07:12:22;1.50;;;1.40;;
32292;SDS011;43233;48.608;8.838;2023-12-20T07:14:48;1.73;;;1.20;;
32292;SDS011;43233;48.608;8.838;2023-12-20T07:17:14;3.10;;;2.10;;
32292;SDS011;43233;48.608;8.838;2023-12-20T07:19:40;1.60;;;1.50;;
32292;SDS011;43233;48.608;8.838;2023-12-20T07:22:06;1.40;;;1.30;;
32292;SDS011;43233;48.608;8.838;2023-12-20T07:24:32;1.30;;;1.30;;
32292;SDS011;43233;48.608;8.838;2023-12-20T07:27:01;1.20;;;1.10;;
32292;SDS011;43233;48.608;8.838;2023-12-20T07:29:27;1.60;;;1.50;;
32292;SDS011;43233;48.608;8.838;2023-12-20T07:31:53;1.17;;;1.17;;
32292;SDS011;43233;48.608;8.838;2023-12-20T07:34:22;1.20;;;1.20;;
32292;SDS011;43233;48.608;8.838;2023-12-20T07:36:47;1.10;;;1.10;;
32292;SDS011;43233;48.608;8.838;2023-12-20T07:39:13;1.10;;;1.10;;
32292;SDS011;43233;48.608;8.838;2023-12-20T07:41:39;1.23;;;1.23;;
32292;SDS011;43233;48.608;8.838;2023-12-20T07:44:06;1.30;;;1.20;;
32292;SDS011;43233;48.608;8.838;2023-12-20T07:46:31;4.00;;;1.40;;
32292;SDS011;43233;48.608;8.838;2023-12-20T07:48:57;1.30;;;1.20;;
32292;SDS011;43233;48.608;8.838;2023-12-20T07:51:23;1.40;;;1.40;;
32292;SDS011;43233;48.608;8.838;2023-12-20T07:53:48;1.57;;;1.47;;
32292;SDS011;43233;48.608;8.838;2023-12-20T07:56:14;2.00;;;1.90;;
32292;SDS011;43233;48.608;8.838;2023-12-20T07:58:41;1.47;;;1.47;;
32292;SDS011;43233;48.608;8.838;2023-12-20T08:01:07;1.30;;;1.30;;
32292;SDS011;43233;48.608;8.838;2023-12-20T08:03:33;1.97;;;1.87;;
32292;SDS011;43233;48.608;8.838;2023-12-20T08:05:58;3.37;;;2.30;;
32292;SDS011;43233;48.608;8.838;2023-12-20T08:08:24;1.97;;;1.80;;
32292;SDS011;43233;48.608;8.838;2023-12-20T08:10:50;2.20;;;2.00;;
32292;SDS011;43233;48.608;8.838;2023-12-20T08:13:16;2.23;;;2.03;;
32292;SDS011;43233;48.608;8.838;2023-12-20T08:15:41;1.93;;;1.83;;
32292;SDS011;43233;48.608;8.838;2023-12-20T08:18:07;2.70;;;2.50;;
32292;SDS011;43233;48.608;8.838;2023-12-20T08:20:33;3.50;;;3.20;;
32292;SDS011;43233;48.608;8.838;2023-12-20T08:22:58;2.10;;;2.00;;
32292;SDS011;43233;48.608;8.838;2023-12-20T08:25:24;2.67;;;2.40;;
32292;SDS011;43233;48.608;8.838;2023-12-20T08:27:49;2.00;;;1.90;;
32292;SDS011;43233;48.608;8.838;2023-12-20T08:30:15;1.70;;;1.60;;
32292;SDS011;43233;48.608;8.838;2023-12-20T08:32:45;1.90;;;1.80;;
32292;SDS011;43233;48.608;8.838;2023-12-20T08:35:11;1.90;;;1.80;;
32292;SDS011;43233;48.608;8.838;2023-12-20T08:37:36;2.13;;;2.03;;
32292;SDS011;43233;48.608;8.838;2023-12-20T08:40:02;6.07;;;2.30;;
32292;SDS011;43233;48.608;8.838;2023-12-20T08:42:28;2.27;;;2.17;;
32292;SDS011;43233;48.608;8.838;2023-12-20T08:44:56;2.00;;;1.90;;
32292;SDS011;43233;48.608;8.838;2023-12-20T08:47:25;2.27;;;1.70;;
32292;SDS011;43233;48.608;8.838;2023-12-20T08:49:52;2.13;;;2.03;;
32292;SDS011;43233;48.608;8.838;2023-12-20T08:52:21;2.00;;;1.90;;
32292;SDS011;43233;48.608;8.838;2023-12-20T08:54:48;3.43;;;1.90;;
32292;SDS011;43233;48.608;8.838;2023-12-20T08:57:16;2.23;;;1.97;;
32292;SDS011;43233;48.608;8.838;2023-12-20T08:59:46;2.57;;;2.13;;
32292;SDS011;43233;48.608;8.838;2023-12-20T09:02:13;2.10;;;1.90;;
32292;SDS011;43233;48.608;8.838;2023-12-20T09:04:39;1.67;;;1.57;;
32292;SDS011;43233;48.608;8.838;2023-12-20T09:07:05;4.47;;;2.00;;
32292;SDS011;43233;48.608;8.838;2023-12-20T09:09:30;1.60;;;1.53;;
32292;SDS011;43233;48.608;8.838;2023-12-20T09:11:57;2.90;;;1.60;;
32292;SDS011;43233;48.608;8.838;2023-12-20T09:14:22;2.10;;;1.90;;
32292;SDS011;43233;48.608;8.838;2023-12-20T09:16:48;1.97;;;1.70;;
32292;SDS011;43233;48.608;8.838;2023-12-20T09:19:16;2.87;;;1.90;;
32292;SDS011;43233;48.608;8.838;2023-12-20T09:21:42;2.30;;;1.67;;
32292;SDS011;43233;48.608;8.838;2023-12-20T09:24:07;6.80;;;1.83;;
32292;SDS011;43233;48.608;8.838;2023-12-20T09:26:33;2.20;;;1.60;;
32292;SDS011;43233;48.608;8.838;2023-12-20T09:28:59;1.83;;;1.50;;
32292;SDS011;43233;48.608;8.838;2023-12-20T09:31:25;1.67;;;1.50;;
32292;SDS011;43233;48.608;8.838;2023-12-20T09:33:51;3.30;;;1.60;;
32292;SDS011;43233;48.608;8.838;2023-12-20T09:36:16;1.73;;;1.40;;
32292;SDS011;43233;48.608;8.838;2023-12-20T09:38:42;2.27;;;1.60;;
32292;SDS011;43233;48.608;8.838;2023-12-20T09:41:07;1.70;;;1.30;;
32292;SDS011;43233;48.608;8.838;2023-12-20T09:43:35;2.10;;;1.27;;
32292;SDS011;43233;48.608;8.838;2023-12-20T09:46:02;3.20;;;1.40;;
32292;SDS011;43233;48.608;8.838;2023-12-20T09:48:30;2.43;;;1.53;;
32292;SDS011;43233;48.608;8.838;2023-12-20T09:50:57;2.10;;;1.30;;
32292;SDS011;43233;48.608;8.838;2023-12-20T09:53:23;1.83;;;1.47;;
32292;SDS011;43233;48.608;8.838;2023-12-20T09:55:55;4.03;;;1.30;;
32292;SDS011;43233;48.608;8.838;2023-12-20T09:58:24;3.57;;;1.67;;
32292;SDS011;43233;48.608;8.838;2023-12-20T10:00:50;1.73;;;1.10;;
32292;SDS011;43233;48.608;8.838;2023-12-20T10:03:16;3.73;;;1.27;;
32292;SDS011;43233;48.608;8.838;2023-12-20T10:05:44;3.77;;;1.20;;
32292;SDS011;43233;48.608;8.838;2023-12-20T10:08:12;1.73;;;1.20;;
32292;SDS011;43233;48.608;8.838;2023-12-20T10:10:37;10.30;;;1.30;;
32292;SDS011;43233;48.608;8.838;2023-12-20T10:13:04;3.87;;;1.60;;
32292;SDS011;43233;48.608;8.838;2023-12-20T10:15:32;5.73;;;1.60;;
32292;SDS011;43233;48.608;8.838;2023-12-20T10:17:58;1.57;;;1.20;;
32292;SDS011;43233;48.608;8.838;2023-12-20T10:20:24;3.87;;;1.37;;
32292;SDS011;43233;48.608;8.838;2023-12-20T10:22:50;4.00;;;1.50;;
32292;SDS011;43233;48.608;8.838;2023-12-20T10:25:18;2.90;;;1.50;;
32292;SDS011;43233;48.608;8.838;2023-12-20T10:27:45;6.77;;;1.97;;
32292;SDS011;43233;48.608;8.838;2023-12-20T10:30:11;5.00;;;2.60;;
32292;SDS011;43233;48.608;8.838;2023-12-20T10:32:37;1.43;;;1.30;;
32292;SDS011;43233;48.608;8.838;2023-12-20T10:35:03;2.53;;;1.30;;
32292;SDS011;43233;48.608;8.838;2023-12-20T10:37:29;2.00;;;1.40;;
32292;SDS011;43233;48.608;8.838;2023-12-20T10:39:55;2.83;;;1.73;;
32292;SDS011;43233;48.608;8.838;2023-12-20T10:42:22;3.37;;;1.43;;
32292;SDS011;43233;48.608;8.838;2023-12-20T10:44:51;3.60;;;1.70;;
32292;SDS011;43233;48.608;8.838;2023-12-20T10:47:19;2.13;;;1.40;;
32292;SDS011;43233;48.608;8.838;2023-12-20T10:49:48;3.77;;;1.43;;
32292;SDS011;43233;48.608;8.838;2023-12-20T10:52:16;4.40;;;1.70;;
32292;SDS011;43233;48.608;8.838;2023-12-20T10:54:43;7.60;;;2.10;;
32292;SDS011;43233;48.608;8.838;2023-12-20T10:57:09;4.53;;;1.60;;
32292;SDS011;43233;48.608;8.838;2023-12-20T10:59:36;1.93;;;1.60;;
32292;SDS011;43233;48.608;8.838;2023-12-20T11:02:03;3.57;;;1.60;;
32292;SDS011;43233;48.608;8.838;2023-12-20T11:04:40;4.57;;;2.00;;
32292;SDS011;43233;48.608;8.838;2023-12-20T11:07:17;3.80;;;2.00;;
32292;SDS011;43233;48.608;8.838;2023-12-20T11:09:58;3.10;;;1.70;;
32292;SDS011;43233;48.608;8.838;2023-12-20T11:12:35;2.27;;;1.60;;
32292;SDS011;43233;48.608;8.838;2023-12-20T11:15:10;6.23;;;2.07;;
32292;SDS011;43233;48.608;8.838;2023-12-20T11:17:38;4.80;;;1.50;;
32292;SDS011;43233;48.608;8.838;2023-12-20T11:20:08;3.50;;;1.73;;
32292;SDS011;43233;48.608;8.838;2023-12-20T11:22:36;1.83;;;1.43;;
32292;SDS011;43233;48.608;8.838;2023-12-20T11:25:03;1.77;;;1.67;;
32292;SDS011;43233;48.608;8.838;2023-12-20T11:27:31;2.83;;;1.60;;
32292;SDS011;43233;48.608;8.838;2023-12-20T11:29:58;1.93;;;1.53;;
32292;SDS011;43233;48.608;8.838;2023-12-20T11:34:50;4.67;;;1.90;;
32292;SDS011;43233;48.608;8.838;2023-12-20T11:37:16;2.73;;;1.60;;
32292;SDS011;43233;48.608;8.838;2023-12-20T11:39:44;3.07;;;2.00;;
32292;SDS011;43233;48.608;8.838;2023-12-20T11:42:09;2.43;;;1.60;;
32292;SDS011;43233;48.608;8.838;2023-12-20T11:44:36;3.70;;;1.77;;
32292;SDS011;43233;48.608;8.838;2023-12-20T11:47:02;4.77;;;2.13;;
32292;SDS011;43233;48.608;8.838;2023-12-20T11:49:28;3.00;;;1.80;;
32292;SDS011;43233;48.608;8.838;2023-12-20T11:51:55;2.50;;;1.70;;
32292;SDS011;43233;48.608;8.838;2023-12-20T11:54:21;4.47;;;2.30;;
32292;SDS011;43233;48.608;8.838;2023-12-20T11:56:48;4.60;;;2.47;;
32292;SDS011;43233;48.608;8.838;2023-12-20T11:59:14;3.17;;;1.80;;
32292;SDS011;43233;48.608;8.838;2023-12-20T12:01:40;3.63;;;2.37;;
32292;SDS011;43233;48.608;8.838;2023-12-20T12:04:12;7.63;;;1.90;;
32292;SDS011;43233;48.608;8.838;2023-12-20T12:06:39;3.00;;;1.70;;
32292;SDS011;43233;48.608;8.838;2023-12-20T12:09:04;4.77;;;1.90;;
32292;SDS011;43233;48.608;8.838;2023-12-20T12:11:30;3.03;;;2.20;;
32292;SDS011;43233;48.608;8.838;2023-12-20T12:13:56;6.10;;;2.20;;
32292;SDS011;43233;48.608;8.838;2023-12-20T12:16:21;4.00;;;1.73;;
32292;SDS011;43233;48.608;8.838;2023-12-20T12:18:54;2.77;;;1.77;;
32292;SDS011;43233;48.608;8.838;2023-12-20T12:21:21;6.67;;;2.00;;
32292;SDS011;43233;48.608;8.838;2023-12-20T12:23:47;5.87;;;1.93;;
32292;SDS011;43233;48.608;8.838;2023-12-20T12:26:13;4.60;;;1.93;;
32292;SDS011;43233;48.608;8.838;2023-12-20T12:28:42;5.90;;;1.77;;
32292;SDS011;43233;48.608;8.838;2023-12-20T12:31:09;4.20;;;2.10;;
32292;SDS011;43233;48.608;8.838;2023-12-20T12:33:40;2.70;;;1.70;;
32292;SDS011;43233;48.608;8.838;2023-12-20T12:36:07;6.37;;;3.17;;
32292;SDS011;43233;48.608;8.838;2023-12-20T12:38:32;6.53;;;1.93;;
32292;SDS011;43233;48.608;8.838;2023-12-20T12:40:59;2.17;;;1.60;;
32292;SDS011;43233;48.608;8.838;2023-12-20T12:43:25;4.77;;;1.57;;
32292;SDS011;43233;48.608;8.838;2023-12-20T12:45:51;1.73;;;1.40;;
32292;SDS011;43233;48.608;8.838;2023-12-20T12:48:17;6.03;;;1.83;;
32292;SDS011;43233;48.608;8.838;2023-12-20T12:50:43;4.87;;;1.77;;
32292;SDS011;43233;48.608;8.838;2023-12-20T12:53:10;2.97;;;1.70;;
32292;SDS011;43233;48.608;8.838;2023-12-20T12:55:36;6.20;;;2.10;;
32292;SDS011;43233;48.608;8.838;2023-12-20T12:58:01;2.30;;;1.60;;
32292;SDS011;43233;48.608;8.838;2023-12-20T13:00:27;3.77;;;2.00;;
32292;SDS011;43233;48.608;8.838;2023-12-20T13:02:53;3.10;;;1.90;;
32292;SDS011;43233;48.608;8.838;2023-12-20T13:05:19;2.93;;;1.70;;
32292;SDS011;43233;48.608;8.838;2023-12-20T13:07:44;4.87;;;1.87;;
32292;SDS011;43233;48.608;8.838;2023-12-20T13:10:10;2.90;;;1.63;;
32292;SDS011;43233;48.608;8.838;2023-12-20T13:12:36;4.40;;;1.83;;
32292;SDS011;43233;48.608;8.838;2023-12-20T13:15:02;3.77;;;1.43;;
32292;SDS011;43233;48.608;8.838;2023-12-20T13:17:29;4.73;;;2.60;;
32292;SDS011;43233;48.608;8.838;2023-12-20T13:19:54;3.63;;;1.60;;
32292;SDS011;43233;48.608;8.838;2023-12-20T13:22:20;1.90;;;1.27;;
32292;SDS011;43233;48.608;8.838;2023-12-20T13:24:46;3.53;;;1.57;;
32292;SDS011;43233;48.608;8.838;2023-12-20T13:27:11;2.33;;;1.20;;
32292;SDS011;43233;48.608;8.838;2023-12-20T13:29:37;6.40;;;1.80;;
32292;SDS011;43233;48.608;8.838;2023-12-20T13:32:03;5.93;;;1.50;;
32292;SDS011;43233;48.608;8.838;2023-12-20T13:34:29;2.60;;;1.50;;
32292;SDS011;43233;48.608;8.838;2023-12-20T13:36:54;3.17;;;1.90;;
32292;SDS011;43233;48.608;8.838;2023-12-20T13:39:21;2.47;;;1.50;;
32292;SDS011;43233;48.608;8.838;2023-12-20T13:41:47;5.20;;;1.50;;
32292;SDS011;43233;48.608;8.838;2023-12-20T13:44:12;2.07;;;1.30;;
32292;SDS011;43233;48.608;8.838;2023-12-20T13:46:38;3.10;;;1.30;;
32292;SDS011;43233;48.608;8.838;2023-12-20T13:49:05;3.90;;;1.73;;
32292;SDS011;43233;48.608;8.838;2023-12-20T13:51:30;3.20;;;1.60;;
32292;SDS011;43233;48.608;8.838;2023-12-20T13:53:56;3.90;;;1.40;;
32292;SDS011;43233;48.608;8.838;2023-12-20T13:56:22;7.93;;;1.53;;
32292;SDS011;43233;48.608;8.838;2023-12-20T13:58:48;5.30;;;2.03;;
32292;SDS011;43233;48.608;8.838;2023-12-20T14:01:15;4.20;;;1.60;;
32292;SDS011;43233;48.608;8.838;2023-12-20T14:03:41;3.80;;;1.63;;
32292;SDS011;43233;48.608;8.838;2023-12-20T14:06:07;6.60;;;2.77;;
32292;SDS011;43233;48.608;8.838;2023-12-20T14:08:33;4.13;;;1.50;;
32292;SDS011;43233;48.608;8.838;2023-12-20T14:10:58;3.13;;;2.13;;
32292;SDS011;43233;48.608;8.838;2023-12-20T14:13:26;3.43;;;1.70;;
32292;SDS011;43233;48.608;8.838;2023-12-20T14:15:52;5.60;;;1.87;;
32292;SDS011;43233;48.608;8.838;2023-12-20T14:18:19;6.40;;;2.50;;
32292;SDS011;43233;48.608;8.838;2023-12-20T14:20:45;3.23;;;2.00;;
32292;SDS011;43233;48.608;8.838;2023-12-20T14:23:12;4.23;;;1.80;;
32292;SDS011;43233;48.608;8.838;2023-12-20T14:25:40;11.57;;;2.10;;
32292;SDS011;43233;48.608;8.838;2023-12-20T14:28:07;4.60;;;2.20;;
32292;SDS011;43233;48.608;8.838;2023-12-20T14:30:32;7.27;;;2.40;;
32292;SDS011;43233;48.608;8.838;2023-12-20T14:33:00;5.87;;;1.73;;
32292;SDS011;43233;48.608;8.838;2023-12-20T14:35:25;9.83;;;2.30;;
32292;SDS011;43233;48.608;8.838;2023-12-20T14:37:51;4.00;;;2.00;;
32292;SDS011;43233;48.608;8.838;2023-12-20T14:40:17;3.00;;;2.20;;
32292;SDS011;43233;48.608;8.838;2023-12-20T14:42:43;3.10;;;2.50;;
32292;SDS011;43233;48.608;8.838;2023-12-20T14:45:09;5.33;;;4.20;;